createdAt,value
2022-12-04T00:01:04.940Z,32.72
2022-12-04T00:03:32.132Z,37.63
2022-12-04T00:06:06.136Z,33.83
2022-12-04T00:08:33.157Z,37.95
2022-12-04T00:11:00.309Z,35.45
2022-12-04T00:13:27.579Z,32.88
2022-12-04T00:15:54.708Z,36.70
2022-12-04T00:18:21.795Z,33.38
2022-12-04T00:20:49.136Z,33.03
2022-12-04T00:23:16.237Z,32.05
2022-12-04T00:25:43.328Z,33.03
2022-12-04T00:28:10.432Z,32.08
2022-12-04T00:30:41.251Z,33.78
2022-12-04T00:33:08.323Z,30.65
2022-12-04T00:35:35.386Z,34.38
2022-12-04T00:38:03.068Z,35.60
2022-12-04T00:40:30.098Z,32.47
2022-12-04T00:42:57.133Z,33.55
2022-12-04T00:45:24.275Z,35.38
2022-12-04T00:47:51.370Z,34.30
2022-12-04T00:50:18.406Z,31.58
2022-12-04T00:52:45.478Z,41.83
2022-12-04T00:55:12.571Z,35.88
2022-12-04T00:57:39.652Z,36.40
2022-12-04T01:00:07.016Z,34.95
2022-12-04T01:02:34.349Z,34.80
2022-12-04T01:05:01.840Z,32.03
2022-12-04T01:07:28.951Z,38.13
2022-12-04T01:09:56.329Z,33.85
2022-12-04T01:12:23.553Z,33.47
2022-12-04T01:14:50.609Z,37.10
2022-12-04T01:17:17.614Z,34.47
2022-12-04T01:19:44.717Z,36.10
2022-12-04T01:22:11.716Z,35.20
2022-12-04T01:24:38.810Z,36.88
2022-12-04T01:27:05.894Z,36.78
2022-12-04T01:29:32.963Z,32.40
2022-12-04T01:32:00.142Z,35.28
2022-12-04T01:34:27.292Z,33.95
2022-12-04T01:36:54.337Z,34.55
2022-12-04T01:39:21.455Z,34.88
2022-12-04T01:41:48.505Z,32.60
2022-12-04T01:44:16.940Z,36.38
2022-12-04T01:46:45.063Z,34.92
2022-12-04T01:49:32.347Z,34.45
2022-12-04T01:52:19.728Z,35.45
2022-12-04T01:54:47.690Z,35.72
2022-12-04T01:57:18.783Z,35.10
2022-12-04T01:59:50.973Z,35.10
2022-12-04T02:02:19.374Z,38.65
2022-12-04T02:04:46.585Z,36.90
2022-12-04T02:07:13.666Z,38.00
2022-12-04T02:09:40.794Z,37.00
2022-12-04T02:12:32.698Z,34.75
2022-12-04T02:15:02.863Z,35.15
2022-12-04T02:17:37.158Z,34.47
2022-12-04T02:20:04.370Z,40.22
2022-12-04T02:22:40.302Z,33.20
2022-12-04T02:25:25.777Z,32.05
2022-12-04T02:28:11.259Z,34.75
2022-12-04T02:30:40.296Z,35.83
2022-12-04T02:33:27.147Z,34.53
2022-12-04T02:36:01.009Z,36.40
2022-12-04T02:38:30.901Z,34.97
2022-12-04T02:41:07.377Z,35.80
2022-12-04T02:43:36.581Z,35.75
2022-12-04T02:46:04.761Z,33.25
2022-12-04T02:48:32.607Z,31.33
2022-12-04T02:50:59.938Z,32.00
2022-12-04T02:53:28.141Z,36.75
2022-12-04T02:55:56.410Z,31.92
2022-12-04T02:58:26.292Z,33.08
2022-12-04T03:00:53.809Z,31.95
2022-12-04T03:03:27.849Z,33.00
2022-12-04T03:06:05.874Z,34.00
2022-12-04T03:08:34.937Z,37.08
2022-12-04T03:11:02.026Z,36.13
2022-12-04T03:13:34.138Z,34.28
2022-12-04T03:16:05.640Z,32.35
2022-12-04T03:18:37.184Z,34.50
2022-12-04T03:21:05.843Z,30.20
2022-12-04T03:23:33.732Z,33.03
2022-12-04T03:26:05.030Z,32.70
2022-12-04T03:28:55.394Z,30.48
2022-12-04T03:34:11.901Z,31.73
2022-12-04T03:36:40.336Z,30.33
2022-12-04T03:39:33.544Z,29.45
2022-12-04T03:42:02.417Z,29.63
2022-12-04T03:44:29.467Z,31.00
2022-12-04T03:46:58.616Z,29.48
2022-12-04T03:49:43.999Z,27.52
2022-12-04T03:52:15.814Z,25.20
2022-12-04T03:54:52.888Z,24.80
2022-12-04T03:57:21.937Z,25.67
2022-12-04T03:59:58.915Z,26.30
2022-12-04T04:02:26.963Z,24.30
2022-12-04T04:04:54.142Z,26.52
2022-12-04T04:07:22.437Z,25.92
2022-12-04T04:09:49.845Z,27.77
2022-12-04T04:12:24.041Z,25.25
2022-12-04T04:15:13.647Z,27.63
2022-12-04T04:18:00.630Z,25.65
2022-12-04T04:21:06.418Z,28.40
2022-12-04T04:24:00.158Z,28.73
2022-12-04T04:26:27.347Z,26.90
2022-12-04T04:28:54.402Z,24.52
2022-12-04T04:31:27.595Z,25.05
2022-12-04T04:34:04.084Z,28.42
2022-12-04T04:36:31.155Z,26.73
2022-12-04T04:39:07.307Z,28.23
2022-12-04T04:41:42.429Z,26.88
2022-12-04T04:44:09.454Z,26.08
2022-12-04T04:46:38.288Z,27.08
2022-12-04T04:49:05.838Z,27.55
2022-12-04T04:51:32.963Z,28.15
2022-12-04T04:54:00.287Z,25.52
2022-12-04T04:56:27.347Z,25.30
2022-12-04T04:58:54.369Z,27.33
2022-12-04T05:01:22.066Z,27.50
2022-12-04T05:03:49.205Z,26.13
2022-12-04T05:06:16.287Z,23.50
2022-12-04T05:08:44.276Z,26.75
2022-12-04T05:11:12.137Z,27.40
2022-12-04T05:13:39.222Z,26.30
2022-12-04T05:16:07.221Z,25.77
2022-12-04T05:18:34.645Z,27.65
2022-12-04T05:21:17.242Z,25.85
2022-12-04T05:23:44.328Z,26.98
2022-12-04T05:26:11.513Z,28.27
2022-12-04T05:28:40.832Z,25.88
2022-12-04T05:31:07.947Z,24.48
2022-12-04T05:33:35.203Z,28.02
2022-12-04T05:36:03.114Z,27.02
2022-12-04T05:38:30.406Z,28.83
2022-12-04T05:41:00.533Z,25.48
2022-12-04T05:43:27.800Z,29.05
2022-12-04T05:45:54.836Z,28.75
2022-12-04T05:48:21.876Z,27.92
2022-12-04T05:50:48.958Z,31.27
2022-12-04T05:53:16.011Z,29.85
2022-12-04T05:55:43.100Z,27.98
2022-12-04T05:58:10.158Z,27.77
2022-12-04T06:00:37.248Z,31.40
2022-12-04T06:03:04.399Z,28.50
2022-12-04T06:05:32.924Z,26.48
2022-12-04T06:08:00.042Z,32.13
2022-12-04T06:10:27.252Z,31.83
2022-12-04T06:12:57.674Z,30.48
2022-12-04T06:15:25.014Z,27.33
2022-12-04T06:17:52.121Z,28.92
2022-12-04T06:20:19.255Z,28.58
2022-12-04T06:22:46.321Z,30.05
2022-12-04T06:25:13.379Z,29.75
2022-12-04T06:27:40.470Z,31.48
2022-12-04T06:30:07.919Z,30.73
2022-12-04T06:32:34.950Z,32.03
2022-12-04T06:35:01.977Z,30.25
2022-12-04T06:37:29.000Z,33.00
2022-12-04T06:39:56.300Z,30.10
2022-12-04T06:42:23.613Z,31.17
2022-12-04T06:44:50.698Z,30.40
2022-12-04T06:47:17.804Z,34.92
2022-12-04T06:49:46.058Z,34.72
2022-12-04T06:52:13.151Z,31.75
2022-12-04T06:54:40.214Z,32.55
2022-12-04T06:57:07.307Z,36.97
2022-12-04T06:59:34.696Z,37.10
2022-12-04T07:02:01.772Z,33.10
2022-12-04T07:04:28.926Z,33.55
2022-12-04T07:06:56.034Z,37.75
2022-12-04T07:09:23.130Z,31.48
2022-12-04T07:11:50.163Z,40.58
2022-12-04T07:14:17.254Z,43.35
2022-12-04T07:16:44.366Z,38.20
2022-12-04T07:19:11.669Z,46.47
2022-12-04T07:21:38.811Z,40.40
2022-12-04T07:24:06.047Z,41.65
2022-12-04T07:26:33.130Z,40.55
2022-12-04T07:30:52.721Z,42.80
2022-12-04T07:33:19.821Z,40.42
2022-12-04T07:35:46.894Z,43.38
2022-12-04T07:38:14.005Z,47.92
2022-12-04T07:40:41.066Z,44.03
2022-12-04T07:43:08.458Z,51.70
2022-12-04T07:45:35.549Z,44.53
2022-12-04T07:48:02.597Z,44.80
2022-12-04T07:50:29.683Z,44.95
2022-12-04T07:52:56.775Z,41.42
2022-12-04T07:55:23.786Z,44.78
2022-12-04T07:57:50.846Z,49.55
2022-12-04T08:00:18.223Z,50.15
2022-12-04T08:02:45.276Z,46.10
2022-12-04T08:05:12.360Z,50.70
2022-12-04T08:07:39.491Z,46.03
2022-12-04T08:10:06.900Z,47.45
2022-12-04T08:12:33.986Z,49.17
2022-12-04T08:15:01.088Z,44.08
2022-12-04T08:17:28.252Z,41.08
2022-12-04T08:19:55.625Z,48.17
2022-12-04T08:22:25.240Z,45.05
2022-12-04T08:24:52.612Z,53.20
2022-12-04T08:27:19.654Z,51.58
2022-12-04T08:29:46.847Z,45.83
2022-12-04T08:32:13.909Z,48.90
2022-12-04T08:34:40.960Z,50.42
2022-12-04T08:37:08.008Z,50.53
2022-12-04T08:39:35.080Z,47.50
2022-12-04T08:42:02.138Z,48.53
2022-12-04T08:44:29.141Z,46.22
2022-12-04T08:46:56.270Z,46.85
2022-12-04T08:49:23.345Z,44.08
2022-12-04T08:51:50.453Z,43.28
2022-12-04T08:54:17.551Z,40.92
2022-12-04T08:56:44.605Z,43.03
2022-12-04T08:59:12.679Z,43.22
2022-12-04T09:01:39.868Z,46.88
2022-12-04T09:04:07.017Z,47.05
2022-12-04T09:06:34.141Z,42.70
2022-12-04T09:09:01.541Z,43.83
2022-12-04T09:11:30.166Z,40.88
2022-12-04T09:13:57.240Z,43.28
2022-12-04T09:16:24.673Z,43.85
2022-12-04T09:18:51.861Z,40.72
2022-12-04T09:21:19.408Z,42.65
2022-12-04T09:23:46.584Z,37.78
2022-12-04T09:26:18.967Z,38.10
2022-12-04T09:28:46.626Z,37.28
2022-12-04T09:31:13.804Z,40.25
2022-12-04T09:33:40.980Z,35.80
2022-12-04T09:36:08.289Z,37.17
2022-12-04T09:38:35.390Z,37.72
2022-12-04T09:41:05.554Z,37.60
2022-12-04T09:43:36.661Z,40.85
2022-12-04T09:46:06.766Z,35.13
2022-12-04T09:48:38.261Z,35.92
2022-12-04T09:51:05.344Z,37.92
2022-12-04T09:53:55.768Z,34.72
2022-12-04T09:56:22.812Z,38.58
2022-12-04T09:58:49.834Z,35.80
2022-12-04T10:01:23.827Z,36.80
2022-12-04T10:03:51.067Z,38.70
2022-12-04T10:06:20.185Z,37.50
2022-12-04T10:08:47.583Z,42.22
2022-12-04T10:11:32.245Z,41.38
2022-12-04T10:14:11.966Z,36.25
2022-12-04T10:17:03.235Z,38.03
2022-12-04T10:19:33.389Z,37.15
2022-12-04T10:22:18.983Z,38.55
2022-12-04T10:24:50.619Z,36.00
2022-12-04T10:27:26.556Z,35.78
2022-12-04T10:29:55.833Z,36.17
2022-12-04T10:32:33.073Z,39.53
2022-12-04T10:35:06.120Z,34.72
2022-12-04T10:37:33.192Z,36.95
2022-12-04T10:40:05.813Z,37.35
2022-12-04T10:42:39.529Z,37.58
2022-12-04T10:45:07.130Z,38.00
2022-12-04T10:47:34.745Z,40.92
2022-12-04T10:50:03.306Z,44.70
2022-12-04T10:52:30.350Z,34.78
2022-12-04T10:54:59.721Z,37.05
2022-12-04T10:57:39.901Z,39.53
2022-12-04T11:00:27.454Z,37.20
2022-12-04T11:02:55.480Z,36.83
2022-12-04T11:05:44.144Z,36.35
2022-12-04T11:08:19.915Z,40.20
2022-12-04T11:10:47.141Z,37.83
2022-12-04T11:13:17.642Z,37.17
2022-12-04T11:18:18.836Z,38.20
2022-12-04T11:20:51.673Z,41.97
2022-12-04T11:23:18.767Z,40.67
2022-12-04T11:25:47.023Z,35.17
2022-12-04T11:28:39.835Z,39.72
2022-12-04T11:31:04.683Z,38.70
2022-12-04T11:33:43.674Z,40.67
2022-12-04T11:36:26.005Z,40.85
2022-12-04T11:38:53.820Z,39.58
2022-12-04T11:41:28.036Z,34.90
2022-12-04T11:43:59.660Z,33.20
2022-12-04T11:46:29.374Z,37.40
2022-12-04T11:48:56.546Z,38.60
2022-12-04T11:51:29.756Z,37.53
2022-12-04T11:53:59.686Z,39.47
2022-12-04T11:56:38.986Z,35.53
2022-12-04T11:59:08.866Z,35.97
2022-12-04T12:01:44.139Z,38.55
2022-12-04T12:04:14.366Z,36.00
2022-12-04T12:06:51.765Z,34.97
2022-12-04T12:09:37.879Z,36.67
2022-12-04T12:12:10.638Z,33.95
2022-12-04T12:14:43.896Z,33.83
2022-12-04T12:17:17.241Z,36.70
2022-12-04T12:20:06.491Z,32.92
2022-12-04T12:22:50.503Z,34.05
2022-12-04T12:25:36.936Z,32.60
2022-12-04T12:28:10.082Z,33.80
2022-12-04T12:30:44.101Z,38.70
2022-12-04T12:33:20.393Z,35.67
2022-12-04T12:36:26.494Z,30.70
2022-12-04T12:38:57.272Z,30.75
2022-12-04T12:41:25.271Z,31.95
2022-12-04T12:44:04.577Z,32.58
2022-12-04T12:46:34.817Z,32.40
2022-12-04T12:49:20.450Z,32.70
2022-12-04T12:52:06.912Z,32.00
2022-12-04T12:54:54.216Z,36.65
2022-12-04T12:57:21.266Z,28.92
2022-12-04T12:59:49.015Z,31.48
2022-12-04T13:02:25.247Z,27.92
2022-12-04T13:04:52.993Z,36.15
2022-12-04T13:07:23.099Z,34.45
2022-12-04T13:10:04.607Z,32.88
2022-12-04T13:12:33.980Z,40.72
2022-12-04T13:15:00.993Z,36.60
2022-12-04T13:17:34.799Z,32.33
2022-12-04T13:20:08.217Z,32.63
2022-12-04T13:22:44.312Z,30.30
2022-12-04T13:25:31.415Z,37.03
2022-12-04T13:27:58.458Z,34.45
2022-12-04T13:30:25.968Z,32.92
2022-12-04T13:33:05.354Z,36.28
2022-12-04T13:35:41.879Z,33.60
2022-12-04T13:38:08.945Z,32.22
2022-12-04T13:40:39.871Z,37.08
2022-12-04T13:43:16.065Z,32.63
2022-12-04T13:45:44.982Z,37.08
2022-12-04T13:48:12.025Z,34.78
2022-12-04T13:50:39.402Z,33.25
2022-12-04T13:53:06.688Z,37.03
2022-12-04T13:55:37.592Z,38.47
2022-12-04T13:58:13.783Z,35.58
2022-12-04T14:00:45.080Z,32.13
2022-12-04T14:03:32.875Z,31.60
2022-12-04T14:06:05.091Z,30.83
2022-12-04T14:08:39.357Z,31.58
2022-12-04T14:11:07.883Z,36.85
2022-12-04T14:13:41.030Z,34.95
2022-12-04T14:16:09.997Z,35.83
2022-12-04T14:18:37.031Z,32.42
2022-12-04T14:21:05.356Z,36.53
2022-12-04T14:23:39.441Z,39.17
2022-12-04T14:26:06.847Z,33.42
2022-12-04T14:28:41.712Z,29.75
2022-12-04T14:31:09.391Z,33.53
2022-12-04T14:33:38.850Z,34.55
2022-12-04T14:36:07.287Z,36.10
2022-12-04T14:38:34.339Z,33.22
2022-12-04T14:41:01.633Z,35.17
2022-12-04T14:43:30.590Z,31.42
2022-12-04T14:46:05.434Z,36.17
2022-12-04T14:48:41.626Z,34.03
2022-12-04T14:51:11.648Z,33.33
2022-12-04T14:53:42.982Z,31.45
2022-12-04T14:56:19.267Z,32.38
2022-12-04T14:58:46.599Z,34.13
2022-12-04T15:01:23.930Z,34.05
2022-12-04T15:03:55.947Z,28.17
2022-12-04T15:06:27.141Z,27.15
2022-12-04T15:09:15.190Z,30.60
2022-12-04T15:12:18.979Z,28.92
2022-12-04T15:14:47.080Z,30.27
2022-12-04T15:17:15.554Z,32.17
2022-12-04T15:19:42.607Z,31.58
2022-12-04T15:22:25.911Z,30.10
2022-12-04T15:24:53.349Z,29.70
2022-12-04T15:27:21.375Z,31.48
2022-12-04T15:29:49.145Z,36.00
2022-12-04T15:32:17.099Z,29.40
2022-12-04T15:34:48.669Z,32.40
2022-12-04T15:37:26.598Z,30.20
2022-12-04T15:39:53.972Z,32.05
2022-12-04T15:42:24.454Z,30.20
2022-12-04T15:45:03.586Z,29.15
2022-12-04T15:47:31.467Z,27.83
2022-12-04T15:50:10.279Z,27.70
2022-12-04T15:52:37.425Z,29.95
2022-12-04T15:55:08.025Z,32.30
2022-12-04T16:00:05.065Z,30.23
2022-12-04T16:02:36.161Z,39.88
2022-12-04T16:05:13.212Z,34.67
2022-12-04T16:07:48.314Z,32.15
2022-12-04T16:10:20.322Z,33.80
2022-12-04T16:12:52.696Z,29.60
2022-12-04T16:15:19.733Z,25.13
2022-12-04T16:17:46.730Z,26.25
2022-12-04T16:20:13.882Z,30.70
2022-12-04T16:22:41.404Z,30.63
2022-12-04T16:25:10.921Z,35.35
2022-12-04T16:27:37.981Z,28.27
2022-12-04T16:30:05.577Z,28.35
2022-12-04T16:32:33.093Z,29.45
2022-12-04T16:35:00.352Z,31.20
2022-12-04T16:37:27.505Z,30.00
2022-12-04T16:39:54.570Z,30.35
2022-12-04T16:42:25.611Z,25.75
2022-12-04T16:44:52.714Z,30.08
2022-12-04T16:47:19.974Z,29.55
2022-12-04T16:49:49.944Z,31.15
2022-12-04T16:52:17.053Z,29.35
2022-12-04T16:54:44.041Z,30.13
2022-12-04T16:57:11.076Z,32.03
2022-12-04T16:59:38.095Z,27.77
2022-12-04T17:02:05.632Z,31.05
2022-12-04T17:04:32.709Z,28.85
2022-12-04T17:06:59.736Z,30.25
2022-12-04T17:09:26.796Z,27.70
2022-12-04T17:11:53.857Z,30.45
2022-12-04T17:14:20.901Z,30.45
2022-12-04T17:16:47.979Z,31.08
2022-12-04T17:19:15.174Z,31.88
2022-12-04T17:21:42.250Z,31.40
2022-12-04T17:24:09.444Z,29.45
2022-12-04T17:26:36.477Z,32.67
2022-12-04T17:29:03.569Z,37.05
2022-12-04T17:31:30.718Z,32.92
2022-12-04T17:33:57.842Z,34.70
2022-12-04T17:36:26.084Z,35.85
2022-12-04T17:38:54.013Z,35.38
2022-12-04T17:41:21.030Z,37.63
2022-12-04T17:43:48.453Z,33.80
2022-12-04T17:46:18.816Z,35.35
2022-12-04T17:48:45.885Z,34.42
2022-12-04T17:51:16.942Z,33.78
2022-12-04T17:53:43.962Z,33.72
2022-12-04T17:56:12.693Z,34.10
2022-12-04T17:58:39.709Z,32.95
2022-12-04T18:01:10.968Z,33.75
2022-12-04T18:03:38.237Z,33.90
2022-12-04T18:06:15.243Z,35.35
2022-12-04T18:08:46.702Z,37.70
2022-12-04T18:11:17.029Z,34.38
2022-12-04T18:13:44.190Z,31.77
2022-12-04T18:16:11.534Z,34.95
2022-12-04T18:18:38.711Z,32.67
2022-12-04T18:21:06.875Z,36.75
2022-12-04T18:23:34.088Z,34.50
2022-12-04T18:26:01.371Z,32.88
2022-12-04T18:28:29.387Z,32.35
2022-12-04T18:30:56.589Z,30.52
2022-12-04T18:33:23.718Z,34.17
2022-12-04T18:35:55.318Z,37.13
2022-12-04T18:38:22.852Z,37.15
2022-12-04T18:40:50.660Z,34.35
2022-12-04T18:43:21.210Z,31.98
2022-12-04T18:48:16.253Z,37.47
2022-12-04T18:50:43.455Z,37.33
2022-12-04T18:53:10.826Z,36.90
2022-12-04T18:55:38.130Z,36.13
2022-12-04T18:58:05.278Z,36.35
2022-12-04T19:00:32.317Z,35.25
2022-12-04T19:02:59.350Z,34.97
2022-12-04T19:05:26.434Z,32.80
2022-12-04T19:07:53.694Z,31.77
2022-12-04T19:10:20.889Z,32.67
2022-12-04T19:12:48.061Z,33.60
2022-12-04T19:15:15.081Z,34.60
2022-12-04T19:17:42.147Z,31.02
2022-12-04T19:20:09.554Z,31.85
2022-12-04T19:22:36.775Z,31.02
2022-12-04T19:25:04.237Z,31.00
2022-12-04T19:27:31.272Z,29.35
2022-12-04T19:29:58.682Z,32.38
2022-12-04T19:32:26.002Z,32.00
2022-12-04T19:34:53.167Z,31.73
2022-12-04T19:37:20.200Z,33.83
2022-12-04T19:39:47.193Z,37.67
2022-12-04T19:42:14.233Z,32.55
2022-12-04T19:44:49.603Z,34.58
2022-12-04T19:47:17.266Z,30.77
2022-12-04T19:49:44.366Z,34.05
2022-12-04T19:52:11.794Z,31.65
2022-12-04T19:54:38.905Z,29.88
2022-12-04T19:57:06.018Z,34.15
2022-12-04T19:59:36.980Z,31.75
2022-12-04T20:02:05.780Z,34.58
2022-12-04T20:04:33.010Z,32.20
2022-12-04T20:07:00.458Z,29.77
2022-12-04T20:09:27.515Z,32.67
2022-12-04T20:11:54.581Z,33.10
2022-12-04T20:14:21.620Z,32.03
2022-12-04T20:23:50.481Z,30.98
2022-12-04T20:26:18.858Z,34.25
2022-12-04T20:28:45.966Z,32.08
2022-12-04T20:31:14.030Z,37.00
2022-12-04T20:33:41.169Z,38.28
2022-12-04T20:36:08.855Z,33.10
2022-12-04T20:38:35.946Z,32.97
2022-12-04T20:41:03.842Z,33.17
2022-12-04T20:43:30.962Z,33.38
2022-12-04T20:45:58.099Z,31.15
2022-12-04T20:48:25.223Z,35.95
2022-12-04T20:50:52.264Z,35.75
2022-12-04T20:53:19.436Z,37.00
2022-12-04T20:55:53.833Z,33.50
2022-12-04T20:58:20.921Z,38.00
2022-12-04T21:00:47.996Z,35.53
2022-12-04T21:03:15.261Z,41.30
2022-12-04T21:05:42.427Z,36.05
2022-12-04T21:08:09.621Z,35.03
2022-12-04T21:10:36.715Z,36.53
2022-12-04T21:13:26.730Z,35.80
2022-12-04T21:16:03.670Z,37.45
2022-12-04T21:18:30.722Z,36.85
2022-12-04T21:20:57.798Z,32.55
2022-12-04T21:23:24.872Z,35.30
2022-12-04T21:25:51.944Z,35.58
2022-12-04T21:28:18.996Z,36.15
2022-12-04T21:30:46.156Z,39.97
2022-12-04T21:33:13.294Z,35.60
2022-12-04T21:35:40.497Z,39.85
2022-12-04T21:38:07.575Z,37.45
2022-12-04T21:40:40.640Z,42.20
2022-12-04T21:43:09.323Z,38.63
2022-12-04T21:45:36.339Z,39.00
2022-12-04T21:48:03.429Z,40.65
2022-12-04T21:50:30.454Z,46.20
2022-12-04T21:52:57.508Z,41.20
2022-12-04T21:55:24.606Z,40.30
2022-12-04T21:57:51.837Z,42.42
2022-12-04T22:00:18.923Z,44.53
2022-12-04T22:02:46.011Z,44.38
2022-12-04T22:05:13.128Z,36.30
2022-12-04T22:07:40.311Z,42.33
2022-12-04T22:10:10.853Z,43.28
2022-12-04T22:12:49.423Z,39.72
2022-12-04T22:15:17.231Z,44.17
2022-12-04T22:17:44.299Z,41.70
2022-12-04T22:20:11.402Z,41.25
2022-12-04T22:22:38.495Z,41.35
2022-12-04T22:25:05.700Z,44.17
2022-12-04T22:27:32.733Z,44.38
2022-12-04T22:30:00.001Z,44.28
2022-12-04T22:32:27.049Z,56.25
2022-12-04T22:34:54.043Z,46.72
2022-12-04T22:37:21.128Z,43.67
2022-12-04T22:39:48.147Z,43.83
2022-12-04T22:42:15.193Z,48.22
2022-12-04T22:44:42.244Z,38.83
2022-12-04T22:47:09.323Z,42.65
2022-12-04T22:49:36.466Z,45.50
2022-12-04T22:52:03.497Z,43.63
2022-12-04T22:54:30.506Z,42.55
2022-12-04T22:56:57.522Z,47.95
2022-12-04T22:59:24.596Z,46.10
2022-12-04T23:01:51.611Z,50.70
2022-12-04T23:04:18.644Z,52.88
2022-12-04T23:06:45.719Z,50.15
2022-12-04T23:09:13.604Z,56.03
2022-12-04T23:11:40.740Z,48.78
2022-12-04T23:14:08.757Z,53.45
2022-12-04T23:16:36.936Z,53.55
2022-12-04T23:19:04.070Z,55.63
2022-12-04T23:21:31.092Z,51.40
2022-12-04T23:23:58.250Z,68.28
2022-12-04T23:26:26.318Z,51.75
2022-12-04T23:28:53.368Z,53.95
2022-12-04T23:31:20.419Z,49.13
2022-12-04T23:33:47.471Z,52.05
2022-12-04T23:36:14.858Z,50.90
2022-12-04T23:38:42.284Z,51.63
2022-12-04T23:41:09.316Z,54.33
2022-12-04T23:43:36.442Z,59.83
2022-12-04T23:46:10.362Z,56.65
2022-12-04T23:48:38.218Z,52.15
2022-12-04T23:51:05.249Z,57.42
2022-12-04T23:53:32.449Z,62.42
2022-12-04T23:56:19.777Z,58.50
2022-12-04T23:58:48.891Z,59.83
